Time;durP1;ratioP1;P1;durP2;ratioP2;P2;SDS_P1;SDS_P2;PMS_P1;PMS_P2;Temp;Humidity;BMP_temperature;BMP_pressure;BME280_temperature;BME280_humidity;BME280_pressure;Samples;Min_cycle;Max_cycle;Signal;HPM_P1;HPM_P2
2021/03/09 00:00:30;;;;;;;8.23;5.38;;;-9.00;76.50;;;;;;5032389;28;20101;-77
2021/03/09 00:02:56;;;;;;;11.00;4.78;;;-9.00;76.40;;;;;;5015135;28;20064;-79
2021/03/09 00:05:22;;;;;;;7.55;5.43;;;-9.10;76.20;;;;;;5025246;28;20542;-78
2021/03/09 00:07:48;;;;;;;9.05;5.75;;;-9.10;76.00;;;;;;5015458;28;20064;-78
2021/03/09 00:10:17;;;;;;;6.88;4.63;;;-9.10;75.60;;;;;;5040469;28;20022;-78
2021/03/09 00:12:43;;;;;;;7.05;5.00;;;-9.10;75.70;;;;;;5037861;28;20029;-77
2021/03/09 00:15:09;;;;;;;7.97;5.85;;;-9.10;76.50;;;;;;5032636;28;20171;-77
2021/03/09 00:17:35;;;;;;;11.80;8.77;;;-9.20;76.40;;;;;;5032309;28;20075;-78
2021/03/09 00:20:04;;;;;;;7.10;4.72;;;-9.20;76.40;;;;;;5014885;28;20271;-77
2021/03/09 00:22:30;;;;;;;10.35;5.18;;;-9.20;76.50;;;;;;5030961;28;20025;-77
2021/03/09 00:24:58;;;;;;;6.80;3.95;;;-9.20;76.50;;;;;;5032251;28;20103;-78
2021/03/09 00:27:24;;;;;;;9.38;4.97;;;-9.30;76.60;;;;;;5032118;28;20025;-76
2021/03/09 00:29:53;;;;;;;6.10;4.90;;;-9.30;76.20;;;;;;5014843;28;20022;-79
2021/03/09 00:32:19;;;;;;;7.18;4.78;;;-9.40;76.20;;;;;;5036201;28;20457;-78
2021/03/09 00:34:45;;;;;;;6.22;4.65;;;-9.40;76.20;;;;;;5018038;28;20074;-78
2021/03/09 00:37:11;;;;;;;8.55;5.95;;;-9.40;76.10;;;;;;5035625;28;20033;-80
2021/03/09 00:39:39;;;;;;;6.43;4.65;;;-9.40;75.80;;;;;;5036010;28;20139;-79
2021/03/09 00:42:08;;;;;;;9.88;4.70;;;-9.50;75.90;;;;;;5035668;28;20025;-77
2021/03/09 00:44:34;;;;;;;8.82;4.78;;;-9.50;76.00;;;;;;5017949;28;20036;-79
2021/03/09 00:47:00;;;;;;;5.35;4.68;;;-9.50;76.30;;;;;;5018074;28;20021;-77
2021/03/09 00:49:26;;;;;;;7.93;5.07;;;-9.50;76.40;;;;;;5035723;28;20032;-80
2021/03/09 00:51:55;;;;;;;7.78;4.70;;;-9.50;76.40;;;;;;5035837;28;20075;-79
2021/03/09 00:54:21;;;;;;;6.10;4.75;;;-9.60;76.60;;;;;;5035564;28;20079;-78
2021/03/09 00:56:47;;;;;;;6.82;4.45;;;-9.60;76.90;;;;;;5036709;28;20378;-80
2021/03/09 00:59:13;;;;;;;12.95;5.78;;;-9.60;77.10;;;;;;5036174;28;20049;-79
2021/03/09 01:01:39;;;;;;;8.27;5.13;;;-9.60;77.30;;;;;;5035560;28;20124;-79
2021/03/09 01:04:05;;;;;;;6.43;4.88;;;-9.60;77.40;;;;;;5035428;28;20557;-80
2021/03/09 01:06:31;;;;;;;9.18;5.45;;;-9.60;77.30;;;;;;5017165;28;20028;-79
2021/03/09 01:09:00;;;;;;;6.80;5.18;;;-9.60;77.30;;;;;;5017099;28;20049;-79
2021/03/09 01:11:26;;;;;;;10.52;5.03;;;-9.60;77.50;;;;;;5035043;28;20025;-79
2021/03/09 01:13:52;;;;;;;8.45;5.15;;;-9.70;77.40;;;;;;5035515;28;20083;-79
2021/03/09 01:16:17;;;;;;;9.02;5.47;;;-9.70;77.50;;;;;;5035219;28;20022;-79
2021/03/09 01:18:46;;;;;;;8.02;5.40;;;-9.70;77.40;;;;;;5035264;28;20021;-79
2021/03/09 01:21:12;;;;;;;8.93;7.57;;;-9.70;77.50;;;;;;5017156;28;20065;-77
2021/03/09 01:23:38;;;;;;;12.93;5.75;;;-9.70;77.50;;;;;;5035041;28;20064;-78
2021/03/09 01:26:04;;;;;;;10.05;7.72;;;-9.70;77.60;;;;;;5036058;28;20530;-78
2021/03/09 01:28:29;;;;;;;8.95;5.30;;;-9.70;77.50;;;;;;5035370;28;20079;-80
2021/03/09 01:30:55;;;;;;;12.95;6.50;;;-9.70;77.30;;;;;;5036575;28;20048;-77
2021/03/09 01:33:24;;;;;;;11.45;6.53;;;-9.80;76.90;;;;;;5035755;28;20034;-79
2021/03/09 01:35:50;;;;;;;10.02;5.50;;;-9.80;77.10;;;;;;5034379;28;20390;-78
2021/03/09 01:38:16;;;;;;;11.00;6.35;;;-9.90;76.90;;;;;;5016948;28;20116;-77
2021/03/09 01:40:42;;;;;;;14.48;5.85;;;-9.90;76.90;;;;;;5016086;28;20021;-78
2021/03/09 01:43:11;;;;;;;8.25;4.93;;;-10.00;77.10;;;;;;5033514;28;20037;-77
2021/03/09 01:45:37;;;;;;;9.80;7.22;;;-10.00;77.40;;;;;;5034330;28;20076;-76
2021/03/09 01:48:05;;;;;;;14.82;6.75;;;-10.00;77.60;;;;;;5034503;28;20030;-77
2021/03/09 01:50:34;;;;;;;10.57;6.55;;;-10.10;77.40;;;;;;5034361;28;20025;-77
2021/03/09 01:53:05;;;;;;;9.52;6.40;;;-10.10;77.40;;;;;;5035767;28;20037;-77
2021/03/09 01:55:31;;;;;;;13.63;6.70;;;-10.20;77.60;;;;;;5038879;28;20027;-77
2021/03/09 01:57:58;;;;;;;8.73;4.97;;;-10.20;77.80;;;;;;5028741;28;20500;-77
2021/03/09 02:00:24;;;;;;;15.55;7.18;;;-10.20;77.70;;;;;;5024610;28;20067;-77
2021/03/09 02:02:50;;;;;;;8.10;5.45;;;-10.20;77.80;;;;;;5034247;28;20033;-77
2021/03/09 02:05:16;;;;;;;8.98;5.70;;;-10.20;77.80;;;;;;5034298;28;20489;-76
2021/03/09 02:07:41;;;;;;;6.30;5.18;;;-10.20;78.40;;;;;;5034111;28;20025;-76
2021/03/09 02:10:11;;;;;;;11.25;5.32;;;-10.20;78.40;;;;;;5034137;28;20029;-77
2021/03/09 02:13:04;;;;;;;9.65;6.22;;;-10.20;78.40;;;;;;5033814;28;20099;-76
2021/03/09 02:15:39;;;;;;;8.77;5.15;;;-10.20;78.70;;;;;;5034711;28;20079;-79
2021/03/09 02:18:07;;;;;;;7.10;5.88;;;-10.30;78.70;;;;;;5032493;28;20041;-78
2021/03/09 02:20:51;;;;;;;10.85;6.50;;;-10.30;78.70;;;;;;5033979;28;20041;-78
2021/03/09 02:23:41;;;;;;;10.90;5.53;;;-10.30;79.10;;;;;;5033581;28;20025;-79
2021/03/09 02:26:34;;;;;;;8.73;5.55;;;-10.30;79.50;;;;;;5047769;28;20543;-76
2021/03/09 02:29:33;;;;;;;9.52;6.97;;;-10.30;79.60;;;;;;5023554;28;20048;-77
2021/03/09 02:32:01;;;;;;;8.57;4.75;;;-10.30;79.50;;;;;;5033609;28;20441;-79
2021/03/09 02:34:35;;;;;;;7.50;5.45;;;-10.30;79.40;;;;;;5033595;28;20032;-78
2021/03/09 02:37:10;;;;;;;6.97;5.22;;;-10.40;79.40;;;;;;5033196;28;20025;-77
2021/03/09 02:39:38;;;;;;;7.20;5.18;;;-10.40;79.40;;;;;;5033932;28;20040;-79
2021/03/09 02:42:06;;;;;;;12.48;5.28;;;-10.40;79.10;;;;;;5033266;28;20505;-77
2021/03/09 02:44:34;;;;;;;10.63;5.63;;;-10.40;79.10;;;;;;5023065;28;20082;-76
2021/03/09 02:47:01;;;;;;;10.25;5.32;;;-10.50;79.00;;;;;;5039858;28;20021;-78
2021/03/09 02:49:29;;;;;;;10.65;6.28;;;-10.50;79.10;;;;;;5033319;28;20025;-76
2021/03/09 02:51:55;;;;;;;9.63;5.10;;;-10.50;79.30;;;;;;5033177;28;20075;-77
2021/03/09 02:54:23;;;;;;;10.82;4.53;;;-10.60;79.40;;;;;;5033186;28;20021;-78
2021/03/09 02:56:51;;;;;;;11.68;5.65;;;-10.70;79.50;;;;;;5026134;28;20451;-77
2021/03/09 02:59:18;;;;;;;8.35;5.25;;;-10.70;79.70;;;;;;5047095;28;20264;-78
2021/03/09 03:01:47;;;;;;;13.82;5.75;;;-10.80;80.00;;;;;;5033240;28;20021;-78
2021/03/09 03:04:18;;;;;;;12.80;6.47;;;-10.80;80.10;;;;;;5015193;28;20067;-78
2021/03/09 03:06:48;;;;;;;10.10;5.57;;;-10.90;80.30;;;;;;5033168;28;20176;-78
2021/03/09 03:09:17;;;;;;;6.38;5.13;;;-10.90;80.40;;;;;;5015134;28;20032;-78
2021/03/09 03:11:45;;;;;;;8.15;5.40;;;-10.90;80.20;;;;;;5033336;28;20017;-77
2021/03/09 03:14:12;;;;;;;10.40;6.10;;;-10.90;80.00;;;;;;5033067;28;20029;-76
2021/03/09 03:16:39;;;;;;;11.17;7.73;;;-11.00;80.00;;;;;;5032765;28;20027;-77
2021/03/09 03:19:07;;;;;;;7.25;5.68;;;-11.00;80.10;;;;;;5015374;28;20407;-77
2021/03/09 03:21:41;;;;;;;5.82;5.10;;;-11.00;80.30;;;;;;5014703;28;20033;-79
2021/03/09 03:24:09;;;;;;;7.85;6.35;;;-11.00;80.40;;;;;;5032567;28;20038;-78
2021/03/09 03:26:40;;;;;;;10.65;6.88;;;-11.00;80.40;;;;;;5032510;28;20013;-78
2021/03/09 03:29:08;;;;;;;10.52;5.70;;;-11.00;80.50;;;;;;5015065;28;20053;-78
2021/03/09 03:31:34;;;;;;;8.40;5.45;;;-11.00;80.70;;;;;;5045365;28;20370;-77
2021/03/09 03:34:00;;;;;;;10.17;5.97;;;-11.00;80.90;;;;;;5033810;28;20032;-77
2021/03/09 03:36:26;;;;;;;10.95;6.00;;;-10.90;80.90;;;;;;5036624;28;20259;-77
2021/03/09 03:38:55;;;;;;;8.70;4.65;;;-10.90;80.70;;;;;;5048524;28;20029;-77
2021/03/09 03:41:21;;;;;;;11.82;6.60;;;-10.90;80.60;;;;;;5047795;28;20047;-77
2021/03/09 03:43:47;;;;;;;4.93;3.03;;;-10.90;80.60;;;;;;5033309;28;20039;-76
2021/03/09 03:46:13;;;;;;;13.38;5.75;;;-10.90;80.40;;;;;;5015253;28;20112;-77
2021/03/09 03:48:39;;;;;;;10.68;5.65;;;-11.00;80.10;;;;;;5032725;28;20109;-78
2021/03/09 03:51:09;;;;;;;9.98;7.60;;;-11.00;80.00;;;;;;5032422;28;20048;-78
2021/03/09 03:53:57;;;;;;;10.45;5.22;;;-11.10;80.00;;;;;;5032540;28;20029;-78
2021/03/09 03:56:55;;;;;;;10.27;6.32;;;-11.10;80.10;;;;;;5002404;28;20025;-76
2021/03/09 03:59:44;;;;;;;10.27;6.28;;;-11.20;80.00;;;;;;5029483;28;20488;-78
2021/03/09 04:02:12;;;;;;;9.05;4.97;;;-11.30;80.10;;;;;;5052366;28;20500;-77
2021/03/09 04:04:40;;;;;;;10.27;6.03;;;-11.40;80.30;;;;;;5052994;28;20051;-79
2021/03/09 04:07:07;;;;;;;9.13;6.13;;;-11.40;80.60;;;;;;5057002;28;20020;-77
2021/03/09 04:09:39;;;;;;;8.27;6.15;;;-11.50;81.00;;;;;;5056291;28;20028;-79
2021/03/09 04:12:08;;;;;;;11.23;7.97;;;-11.50;81.20;;;;;;5038576;28;20120;-78
2021/03/09 04:14:34;;;;;;;11.73;5.97;;;-11.50;81.60;;;;;;5038607;28;20148;-77
2021/03/09 04:17:02;;;;;;;10.98;6.82;;;-11.50;82.30;;;;;;5054775;28;20032;-83
2021/03/09 04:19:29;;;;;;;9.82;6.50;;;-11.50;81.80;;;;;;5052030;28;20028;-80
2021/03/09 04:21:57;;;;;;;12.38;7.35;;;-11.50;81.90;;;;;;5056844;28;20494;-80
2021/03/09 04:24:25;;;;;;;10.90;6.55;;;-11.50;82.00;;;;;;5056398;28;20036;-80
2021/03/09 04:26:51;;;;;;;7.93;6.22;;;-11.50;82.00;;;;;;5050657;28;20045;-81
2021/03/09 04:29:18;;;;;;;13.75;6.78;;;-11.50;82.30;;;;;;5041505;28;20486;-82
2021/03/09 04:31:45;;;;;;;11.93;7.82;;;-11.50;82.50;;;;;;5057496;28;20371;-81
2021/03/09 04:34:12;;;;;;;12.27;7.30;;;-11.50;82.30;;;;;;5061269;28;20023;-79
2021/03/09 04:36:41;;;;;;;8.20;5.32;;;-11.40;82.30;;;;;;5062674;28;20045;-80
2021/03/09 04:39:09;;;;;;;14.00;8.25;;;-11.40;82.90;;;;;;5061491;28;20024;-81
2021/03/09 04:41:36;;;;;;;10.23;7.15;;;-11.30;82.20;;;;;;5060447;28;20033;-81
2021/03/09 04:44:02;;;;;;;11.68;7.88;;;-11.30;82.10;;;;;;5037779;28;20035;-80
2021/03/09 04:46:29;;;;;;;10.13;6.70;;;-11.30;82.10;;;;;;5056311;28;20389;-79
2021/03/09 04:48:56;;;;;;;15.93;7.28;;;-11.20;82.00;;;;;;5055360;28;20036;-81
2021/03/09 04:51:22;;;;;;;5.47;4.85;;;-11.10;81.90;;;;;;5056290;28;20021;-79
2021/03/09 04:53:49;;;;;;;9.52;6.45;;;-11.20;81.60;;;;;;5055682;28;20108;-79
2021/03/09 04:56:15;;;;;;;;;;;-11.20;81.40;;;;;;5055888;28;20049;-79
2021/03/09 04:58:42;;;;;;;10.40;6.23;;;-11.20;81.40;;;;;;5055551;28;19951;-80
2021/03/09 05:01:07;;;;;;;10.83;7.37;;;-11.20;81.50;;;;;;5055723;28;20025;-81
2021/03/09 05:03:45;;;;;;;13.05;7.57;;;-11.20;81.50;;;;;;5056571;28;20039;-79
2021/03/09 05:06:11;;;;;;;7.28;5.65;;;-11.30;81.30;;;;;;5055499;28;20088;-79
2021/03/09 05:08:37;;;;;;;10.45;6.63;;;-11.30;81.20;;;;;;5055003;28;20045;-78
2021/03/09 05:11:03;;;;;;;9.75;6.78;;;-11.30;81.40;;;;;;5055107;28;20036;-79
2021/03/09 05:13:29;;;;;;;11.63;6.75;;;-11.30;81.60;;;;;;5054850;28;20031;-80
2021/03/09 05:15:55;;;;;;;7.75;5.93;;;-11.30;81.60;;;;;;5051244;28;20013;-78
2021/03/09 05:18:30;;;;;;;10.35;7.90;;;-11.30;81.40;;;;;;5040893;28;20048;-81
2021/03/09 05:20:56;;;;;;;9.98;5.97;;;-11.20;81.50;;;;;;5026429;28;20152;-79
2021/03/09 05:23:22;;;;;;;9.75;5.40;;;-11.20;81.40;;;;;;5053701;28;20049;-79
2021/03/09 05:25:48;;;;;;;11.65;6.55;;;-11.20;81.10;;;;;;5055523;28;20029;-82
2021/03/09 05:28:14;;;;;;;11.15;5.30;;;-11.20;80.50;;;;;;5041965;28;20044;-79
2021/03/09 05:30:40;;;;;;;13.68;7.10;;;-11.20;80.30;;;;;;5041282;28;20047;-80
2021/03/09 05:33:06;;;;;;;15.10;7.75;;;-11.20;80.50;;;;;;5036877;28;20033;-80
2021/03/09 05:35:32;;;;;;;13.68;8.77;;;-11.20;80.50;;;;;;5054515;28;20016;-79
2021/03/09 05:37:58;;;;;;;15.67;6.83;;;-11.20;80.30;;;;;;5037964;28;20035;-80
2021/03/09 05:40:24;;;;;;;13.00;8.05;;;-11.20;80.40;;;;;;5054531;28;20021;-79
2021/03/09 05:42:51;;;;;;;10.18;7.18;;;-11.20;80.40;;;;;;5053882;28;20079;-78
2021/03/09 05:45:21;;;;;;;;;;;-11.20;79.90;;;;;;5054962;28;20482;-82
2021/03/09 05:47:47;;;;;;;10.98;7.47;;;-11.20;79.70;;;;;;5038439;28;19913;-80
2021/03/09 05:50:14;;;;;;;12.40;6.68;;;-11.30;79.20;;;;;;5045793;28;20498;-82
2021/03/09 05:52:41;;;;;;;10.18;7.07;;;-11.30;79.20;;;;;;5037861;28;20028;-78
2021/03/09 05:55:11;;;;;;;;;;;-11.30;79.20;;;;;;5039900;28;20017;-81
2021/03/09 05:57:37;;;;;;;10.18;6.35;;;-11.20;79.20;;;;;;5050931;28;19908;-81
2021/03/09 06:00:08;;;;;;;12.10;7.82;;;-11.20;79.30;;;;;;5053635;28;20090;-81
2021/03/09 06:02:34;;;;;;;13.80;6.63;;;-11.20;79.40;;;;;;5053604;28;20363;-79
2021/03/09 06:05:09;;;;;;;10.38;6.32;;;-11.20;79.90;;;;;;5050408;28;20022;-80
2021/03/09 06:07:35;;;;;;;12.05;5.78;;;-11.20;79.70;;;;;;5048975;28;20025;-80
2021/03/09 06:10:02;;;;;;;10.43;5.85;;;-11.20;79.00;;;;;;5051837;28;20025;-80
2021/03/09 06:12:28;;;;;;;15.05;7.07;;;-11.10;78.80;;;;;;5053179;28;20051;-78
2021/03/09 06:15:00;;;;;;;9.52;7.07;;;-11.20;78.00;;;;;;5051015;28;20029;-80
2021/03/09 06:17:26;;;;;;;10.60;6.07;;;-11.10;78.20;;;;;;5051004;28;20014;-80
2021/03/09 06:19:52;;;;;;;12.60;6.45;;;-11.10;78.30;;;;;;5053251;28;20089;-80
2021/03/09 06:22:19;;;;;;;11.13;7.05;;;-11.10;78.40;;;;;;5053434;28;20033;-81
2021/03/09 06:24:48;;;;;;;8.90;6.30;;;-11.10;78.30;;;;;;5053518;28;20396;-83
2021/03/09 06:27:26;;;;;;;11.50;6.03;;;-11.00;78.80;;;;;;5037507;28;20025;-78
2021/03/09 06:29:53;;;;;;;16.05;9.13;;;-11.00;78.70;;;;;;5050553;28;20032;-84
2021/03/09 06:32:19;;;;;;;9.18;5.90;;;-11.00;78.60;;;;;;5053552;28;20013;-78
2021/03/09 06:34:45;;;;;;;12.77;7.23;;;-11.00;78.40;;;;;;5052937;28;20037;-74
2021/03/09 06:37:27;;;;;;;12.43;7.90;;;-10.90;77.90;;;;;;5045051;28;20024;-78
2021/03/09 06:40:04;;;;;;;11.02;7.22;;;-10.90;77.80;;;;;;5047862;28;20320;-79
2021/03/09 06:42:29;;;;;;;;;;;-11.00;77.20;;;;;;5052832;28;20088;-80
2021/03/09 06:45:00;;;;;;;9.83;7.37;;;-11.00;76.70;;;;;;5045858;28;20303;-79
2021/03/09 06:47:36;;;;;;;11.63;5.57;;;-11.00;76.90;;;;;;5053498;28;20017;-79
2021/03/09 06:50:13;;;;;;;9.32;5.55;;;-11.00;78.00;;;;;;5038384;28;20112;-80
2021/03/09 06:52:41;;;;;;;10.80;5.78;;;-11.00;79.10;;;;;;5053110;28;20486;-82
2021/03/09 06:55:09;;;;;;;11.20;6.18;;;-11.00;78.80;;;;;;5054190;28;20051;-81
2021/03/09 06:57:36;;;;;;;9.48;5.13;;;-11.00;78.30;;;;;;5052485;28;20017;-82
2021/03/09 07:00:06;;;;;;;9.63;7.35;;;-11.00;77.80;;;;;;5044350;28;20474;-82
2021/03/09 07:02:34;;;;;;;9.88;6.82;;;-10.90;78.30;;;;;;5049045;28;20409;-83
2021/03/09 07:05:13;;;;;;;17.65;7.00;;;-10.90;77.40;;;;;;5018149;28;20036;-85
2021/03/09 07:07:42;;;;;;;9.40;6.38;;;-10.90;77.30;;;;;;5035177;28;20433;-82
2021/03/09 07:10:10;;;;;;;13.15;7.43;;;-10.90;76.90;;;;;;5048564;28;20504;-81
2021/03/09 07:12:37;;;;;;;;;;;-10.90;77.00;;;;;;5032948;28;20355;-83
2021/03/09 07:15:05;;;;;;;10.93;6.22;;;-10.80;77.10;;;;;;5037653;28;19908;-81
2021/03/09 07:17:32;;;;;;;12.18;6.97;;;-10.70;77.40;;;;;;5017685;28;20064;-82
2021/03/09 07:19:59;;;;;;;7.57;6.15;;;-10.60;77.40;;;;;;5038823;28;20032;-83
2021/03/09 07:22:26;;;;;;;14.40;7.60;;;-10.50;77.50;;;;;;5035424;28;20406;-81
2021/03/09 07:25:13;;;;;;;;;;;-10.40;77.50;;;;;;5015552;28;20553;-82
2021/03/09 07:27:47;;;;;;;5.60;4.63;;;-10.30;77.20;;;;;;5032854;28;20460;-82
2021/03/09 07:30:14;;;;;;;8.82;4.50;;;-10.10;77.40;;;;;;5037531;28;20044;-85
2021/03/09 07:32:43;;;;;;;11.88;7.03;;;-10.00;77.10;;;;;;5033537;28;20351;-83
2021/03/09 07:35:10;;;;;;;9.13;5.47;;;-9.80;76.60;;;;;;5015161;28;20470;-78
2021/03/09 07:37:38;;;;;;;9.45;6.60;;;-9.60;76.80;;;;;;5029533;28;20076;-78
2021/03/09 07:40:09;;;;;;;12.45;6.97;;;-9.50;75.30;;;;;;5015994;28;20481;-80
2021/03/09 07:42:36;;;;;;;11.95;7.90;;;-9.30;74.00;;;;;;5036503;28;20496;-81
2021/03/09 07:45:03;;;;;;;14.52;8.63;;;-8.80;74.60;;;;;;5032835;28;20075;-81
2021/03/09 07:47:29;;;;;;;13.52;7.78;;;-7.60;73.80;;;;;;5034212;28;20013;-83
2021/03/09 07:49:58;;;;;;;13.30;7.35;;;-6.30;71.20;;;;;;5033785;28;20105;-83
2021/03/09 07:52:27;;;;;;;15.82;7.88;;;-5.00;65.00;;;;;;5014540;28;20017;-83
2021/03/09 07:55:01;;;;;;;13.70;7.45;;;-3.90;61.20;;;;;;5035783;28;20033;-83
2021/03/09 07:57:37;;;;;;;13.32;8.15;;;-2.80;59.10;;;;;;5023473;28;20057;-82
2021/03/09 08:00:13;;;;;;;12.80;6.97;;;-2.10;57.90;;;;;;5037950;28;20512;-80
2021/03/09 08:02:55;;;;;;;;;;;;;;;;;;;;;
2021/03/09 08:05:26;;;;;;;12.55;6.32;;;-2.90;56.20;;;;;;5046631;28;20494;-81
2021/03/09 08:08:01;;;;;;;14.60;7.30;;;-3.90;56.10;;;;;;5034458;28;20044;-82
2021/03/09 08:10:37;;;;;;;17.13;7.10;;;-4.70;53.00;;;;;;5048398;28;20021;-83
2021/03/09 08:13:11;;;;;;;9.57;7.28;;;-5.80;52.90;;;;;;5044375;28;20056;-81
2021/03/09 08:15:38;;;;;;;12.93;8.63;;;-6.60;54.80;;;;;;5051527;28;20025;-83
2021/03/09 08:18:16;;;;;;;12.52;7.25;;;-6.90;58.10;;;;;;5041169;28;20027;-83
2021/03/09 08:20:58;;;;;;;14.95;7.63;;;-6.40;58.10;;;;;;5048302;28;20059;-81
2021/03/09 08:26:02;;;;;;;11.65;6.65;;;-4.70;56.90;;;;;;5046749;28;20037;-83
2021/03/09 08:28:38;;;;;;;14.38;5.43;;;-3.90;55.20;;;;;;5046103;28;20124;-81
2021/03/09 08:31:13;;;;;;;9.27;6.82;;;-2.90;51.50;;;;;;5049453;28;20500;-82
2021/03/09 08:33:45;;;;;;;10.32;6.90;;;-2.40;50.20;;;;;;5050025;28;20115;-82
2021/03/09 08:36:20;;;;;;;7.38;5.90;;;-2.10;48.20;;;;;;5034049;28;20025;-83
2021/03/09 08:39:16;;;;;;;12.27;7.43;;;-1.30;48.40;;;;;;5046313;28;20018;-84
2021/03/09 08:41:41;;;;;;;11.93;7.30;;;-0.60;45.50;;;;;;5032759;28;20025;-82
2021/03/09 08:44:23;;;;;;;12.05;6.47;;;-0.20;47.80;;;;;;5032443;28;20486;-81
2021/03/09 08:47:10;;;;;;;11.43;5.72;;;0.20;49.10;;;;;;5051665;28;20056;-81
2021/03/09 08:49:36;;;;;;;13.88;8.02;;;0.10;45.10;;;;;;5029144;28;20022;-82
2021/03/09 08:52:41;;;;;;;12.52;8.13;;;0.30;43.70;;;;;;5035032;28;20017;-83
2021/03/09 08:55:07;;;;;;;11.50;6.63;;;0.90;41.60;;;;;;5062036;28;20017;-85
2021/03/09 08:57:33;;;;;;;10.30;5.75;;;1.10;43.40;;;;;;5076736;28;20059;-85
2021/03/09 09:00:11;;;;;;;11.35;8.15;;;0.40;41.80;;;;;;5041701;28;20037;-83
2021/03/09 09:02:44;;;;;;;13.05;7.40;;;-0.20;40.10;;;;;;5037279;28;20076;-85
2021/03/09 09:05:12;;;;;;;16.75;8.80;;;-1.00;39.80;;;;;;5037194;28;20095;-82
2021/03/09 09:07:40;;;;;;;16.75;8.02;;;-2.10;42.20;;;;;;5035150;28;20029;-83
2021/03/09 09:10:12;;;;;;;16.70;8.13;;;-2.70;44.20;;;;;;5017894;28;20029;-83
2021/03/09 09:12:48;;;;;;;10.68;6.85;;;-3.30;46.10;;;;;;5015609;28;20021;-83
2021/03/09 09:15:49;;;;;;;13.02;6.88;;;-4.00;46.40;;;;;;5015886;28;20028;-89
2021/03/09 09:18:15;;;;;;;18.65;7.68;;;-4.60;48.10;;;;;;5018512;28;20031;-78
2021/03/09 09:20:45;;;;;;;12.43;8.27;;;-5.20;49.90;;;;;;5033169;28;20077;-80
2021/03/09 09:23:18;;;;;;;10.00;7.35;;;-5.50;51.40;;;;;;5017267;28;20037;-81
2021/03/09 09:25:46;;;;;;;9.32;6.15;;;-5.80;53.60;;;;;;5035471;28;20493;-82
2021/03/09 09:28:31;;;;;;;16.60;9.20;;;-5.90;53.00;;;;;;5035389;28;20031;-83
2021/03/09 09:31:04;;;;;;;11.90;7.18;;;-5.80;53.90;;;;;;5021614;28;20075;-79
2021/03/09 09:33:30;;;;;;;17.33;7.03;;;-5.40;53.40;;;;;;5035113;28;20116;-83
2021/03/09 09:35:56;;;;;;;11.20;6.97;;;-5.30;52.60;;;;;;5035105;28;20034;-80
2021/03/09 09:38:22;;;;;;;10.43;6.23;;;-5.50;55.60;;;;;;5035490;28;20025;-81
2021/03/09 09:40:54;;;;;;;10.95;6.80;;;-5.80;55.70;;;;;;5035235;28;20025;-80
2021/03/09 09:43:22;;;;;;;12.55;7.80;;;-5.90;54.20;;;;;;5035143;28;20041;-82
2021/03/09 09:45:58;;;;;;;12.95;6.55;;;-5.00;56.50;;;;;;5034773;28;20025;-81
2021/03/09 09:48:29;;;;;;;14.98;9.63;;;-3.60;53.90;;;;;;5035040;28;20025;-81
2021/03/09 09:51:00;;;;;;;18.02;8.20;;;-2.80;51.80;;;;;;5017182;28;20025;-82
2021/03/09 09:53:36;;;;;;;13.38;6.95;;;-2.60;50.00;;;;;;5036156;28;20021;-84
2021/03/09 09:56:06;;;;;;;16.90;7.50;;;-1.90;48.90;;;;;;5034794;28;20508;-82
2021/03/09 09:58:52;;;;;;;15.57;8.27;;;-1.80;46.10;;;;;;5021579;28;20854;-81
2021/03/09 10:01:44;;;;;;;9.68;5.57;;;-1.00;46.70;;;;;;5020082;28;20033;-83
2021/03/09 10:04:11;;;;;;;11.98;6.82;;;-0.10;46.10;;;;;;5034164;28;20498;-83
2021/03/09 10:06:48;;;;;;;11.30;6.80;;;0.20;42.80;;;;;;5036014;28;20405;-83
2021/03/09 10:09:24;;;;;;;10.23;6.40;;;0.40;42.80;;;;;;5040766;28;20044;-81
2021/03/09 10:11:54;;;;;;;11.48;6.72;;;0.50;40.70;;;;;;5040161;28;20025;-82
2021/03/09 10:14:22;;;;;;;12.23;7.38;;;0.60;42.20;;;;;;5035554;28;20022;-83
2021/03/09 10:16:48;;;;;;;12.85;6.75;;;0.50;40.80;;;;;;5030667;28;20029;-82
2021/03/09 10:19:20;;;;;;;12.23;7.72;;;0.60;41.20;;;;;;5035758;28;20359;-82
2021/03/09 10:21:47;;;;;;;8.90;5.90;;;0.70;42.90;;;;;;5020088;28;20079;-83
2021/03/09 10:24:39;;;;;;;11.88;6.47;;;1.20;45.60;;;;;;5024541;28;20548;-84
2021/03/09 10:27:12;;;;;;;11.88;7.95;;;1.50;40.20;;;;;;5029791;28;20071;-82
2021/03/09 10:29:38;;;;;;;11.73;7.00;;;1.10;38.00;;;;;;5034339;28;20021;-81
2021/03/09 10:32:04;;;;;;;11.88;6.68;;;0.40;40.20;;;;;;5034344;28;20075;-82
2021/03/09 10:34:41;;;;;;;13.95;8.60;;;-0.30;41.40;;;;;;5028195;28;20022;-83
2021/03/09 10:37:09;;;;;;;13.57;7.85;;;-0.80;41.40;;;;;;5034388;28;20099;-81
2021/03/09 10:39:37;;;;;;;15.15;7.40;;;-1.40;41.70;;;;;;5034552;28;20072;-81
2021/03/09 10:42:25;;;;;;;15.50;8.23;;;-2.10;42.00;;;;;;5033901;28;20022;-81
2021/03/09 10:44:51;;;;;;;10.15;7.38;;;-2.80;43.90;;;;;;5017495;28;20041;-81
2021/03/09 10:47:16;;;;;;;12.63;7.20;;;-3.50;46.30;;;;;;5025961;28;20068;-80
2021/03/09 10:49:42;;;;;;;8.88;6.25;;;-4.10;46.70;;;;;;5027975;28;20481;-80
2021/03/09 10:52:09;;;;;;;11.27;6.30;;;-4.80;47.20;;;;;;5034838;28;20028;-82
2021/03/09 10:54:40;;;;;;;16.03;7.13;;;-5.50;48.60;;;;;;5034802;28;20013;-82
2021/03/09 10:57:11;;;;;;;11.57;7.22;;;-6.20;49.90;;;;;;5025599;28;20025;-83
2021/03/09 10:59:43;;;;;;;10.32;5.35;;;-6.70;51.10;;;;;;5033887;28;20037;-82
2021/03/09 11:02:09;;;;;;;9.70;6.28;;;-7.00;52.80;;;;;;5017234;28;20033;-80
2021/03/09 11:04:35;;;;;;;10.50;7.65;;;-7.30;53.50;;;;;;5017269;28;20036;-81
2021/03/09 11:07:01;;;;;;;11.05;5.18;;;-7.50;54.60;;;;;;5035808;28;20026;-83
2021/03/09 11:09:36;;;;;;;7.78;6.22;;;-7.60;56.00;;;;;;5036401;28;20142;-81
2021/03/09 11:12:01;;;;;;;12.10;6.20;;;-7.60;57.80;;;;;;5009740;28;20025;-81
2021/03/09 11:14:30;;;;;;;11.90;6.80;;;-7.70;59.00;;;;;;5037132;28;20028;-81
2021/03/09 11:16:56;;;;;;;11.05;5.50;;;-7.60;58.40;;;;;;5038618;28;20021;-81
2021/03/09 11:19:21;;;;;;;12.05;7.70;;;-7.80;58.60;;;;;;5037315;28;20113;-81
2021/03/09 11:24:49;;;;;;;10.95;6.00;;;-7.90;58.50;;;;;;5028167;28;20457;-82
2021/03/09 11:27:31;;;;;;;13.70;8.57;;;-8.00;57.60;;;;;;5037025;28;20068;-83
2021/03/09 11:29:56;;;;;;;8.27;5.97;;;-8.10;57.70;;;;;;5034892;28;20029;-82
2021/03/09 11:32:44;;;;;;;;;;;;;;;;;;;;;
2021/03/09 11:35:11;;;;;;;15.65;7.30;;;-8.20;58.60;;;;;;5036808;28;20081;-84
2021/03/09 11:37:36;;;;;;;8.32;6.80;;;-8.20;59.80;;;;;;5034156;28;20048;-82
2021/03/09 11:40:05;;;;;;;11.32;7.00;;;-8.30;58.30;;;;;;5015666;28;20068;-80
2021/03/09 11:42:31;;;;;;;9.57;5.97;;;-8.30;58.20;;;;;;5034458;28;20097;-78
2021/03/09 11:44:56;;;;;;;10.68;6.70;;;-8.40;58.60;;;;;;5033293;28;20081;-79
2021/03/09 11:47:22;;;;;;;16.20;7.20;;;-8.50;58.50;;;;;;5033027;28;20104;-77
2021/03/09 11:49:48;;;;;;;19.85;9.10;;;-8.50;59.10;;;;;;5016032;28;20108;-82
2021/03/09 11:52:14;;;;;;;15.60;7.32;;;-8.50;59.60;;;;;;5032851;28;20021;-81
2021/03/09 11:54:42;;;;;;;12.52;7.65;;;-8.50;61.10;;;;;;5033115;28;20021;-79
2021/03/09 11:57:08;;;;;;;10.00;6.50;;;-8.60;58.30;;;;;;5015312;28;20022;-79
2021/03/09 11:59:34;;;;;;;11.98;6.43;;;-8.60;59.60;;;;;;5043571;28;20095;-81
2021/03/09 12:02:00;;;;;;;10.98;7.07;;;-8.60;59.10;;;;;;5032647;28;20025;-82
2021/03/09 12:04:25;;;;;;;15.85;8.80;;;-8.60;58.50;;;;;;5031027;28;20502;-81
2021/03/09 12:06:51;;;;;;;12.82;7.95;;;-8.70;58.30;;;;;;5030345;28;20030;-81
2021/03/09 12:09:18;;;;;;;10.13;6.15;;;-8.80;59.00;;;;;;5032028;28;20106;-80
2021/03/09 12:11:43;;;;;;;13.75;8.30;;;-8.90;59.90;;;;;;5032692;28;20494;-80
2021/03/09 12:14:09;;;;;;;11.13;6.55;;;-8.80;60.00;;;;;;5033009;28;20064;-80
2021/03/09 12:16:35;;;;;;;13.25;6.55;;;-8.80;58.70;;;;;;5032485;28;20017;-80
2021/03/09 12:19:01;;;;;;;15.15;6.43;;;-8.70;58.70;;;;;;5032440;28;20486;-81
2021/03/09 12:21:27;;;;;;;12.30;5.93;;;-8.70;58.70;;;;;;5030837;28;20474;-79
2021/03/09 12:23:52;;;;;;;11.50;8.27;;;-8.70;59.20;;;;;;5032578;28;20394;-78
2021/03/09 12:26:18;;;;;;;15.25;8.05;;;-8.50;58.80;;;;;;5032348;28;20461;-78
2021/03/09 12:28:50;;;;;;;12.25;7.25;;;-8.20;59.40;;;;;;5035509;28;20101;-79
2021/03/09 12:31:18;;;;;;;12.50;7.38;;;-8.00;58.50;;;;;;5040916;28;20101;-80
2021/03/09 12:33:47;;;;;;;9.90;5.05;;;-7.90;59.50;;;;;;5037786;28;20032;-79
2021/03/09 12:36:12;;;;;;;9.43;6.00;;;-7.80;58.30;;;;;;5042999;28;20018;-79
2021/03/09 12:38:38;;;;;;;8.38;7.45;;;-7.80;58.80;;;;;;5035944;28;20084;-80
2021/03/09 12:41:04;;;;;;;13.32;6.72;;;-7.60;58.00;;;;;;5026648;28;20028;-80
2021/03/09 12:43:30;;;;;;;8.45;5.60;;;-7.50;57.10;;;;;;5040270;28;20037;-82
2021/03/09 12:45:56;;;;;;;11.70;7.32;;;-7.30;57.00;;;;;;5044737;28;20111;-82
2021/03/09 12:48:21;;;;;;;11.65;7.03;;;-7.30;57.20;;;;;;5041190;28;20406;-84
2021/03/09 12:50:47;;;;;;;8.40;6.30;;;-7.30;56.90;;;;;;5041850;28;20048;-83
2021/03/09 12:53:13;;;;;;;12.10;6.93;;;-7.40;56.20;;;;;;5036463;28;20016;-79
2021/03/09 12:55:39;;;;;;;11.13;6.30;;;-7.30;57.60;;;;;;5035148;28;20437;-80
2021/03/09 12:58:13;;;;;;;10.88;7.68;;;-7.20;56.60;;;;;;5036928;28;20044;-80